Terminal Aerodrome Forecast
Issued by NWS

Home | Current Version | Previous Version | Text Only | Print | Product List | Glossary On
Versions: 1 2 3 4 5 6 7 8 9 10 11 12 13 14 15 16 17 18 19 20 21
000
FTUS43 KIND 171100
TAFBMG
TAF
KBMG 171122Z 1712/1812 00000KT 1/4SM FG VV001
     FM171300 00000KT 2SM BR BCFG SCT002
     FM171400 VRB03KT P6SM SCT025
     FM171700 25004KT P6SM BKN050
     FM180000 33005KT P6SM SCT050
     FM180600 VRB03KT 3SM BR SCT050
      AMD LTD TO CLD VIS AND WIND TIL 171300=

USA.gov is the U.S. government's official web portal to all federal, state and local government web resources and services.